KAPF/APF METAR and TAF weather

Enter ICAO airport designator
Station Type Date Time Source
KAPF METAR 2018/09/21 23:09 UTC NOAA

KAPF 212309Z 09009KT 4SM VCTS +RA BR BKN050 OVC075 23/21 A3000 RMK AO2 LTG DSNT ALQDS TSE09 P0008 T02330211


Station Type Date Time Source
KAPF Decoded METAR 2018/09/21 23:09 UTC NOAA

NAPLES MUNICIPAL AIRPORT, FL, United States (KAPF) 26-09N 081-46W
Sep 21, 2018 - 07:09 PM EDT / 2018.09.21 2309 UTC
Wind: from the E (090 degrees) at 10 MPH (9 KT):0
Visibility: 4 mile(s):0
Sky conditions: overcast
Weather: thunder in the vicinity; heavy rain; mist; Lightning observed
Precipitation last hour: 0.08 inches
Temperature: 73.9 F (23.3 C)
Dew Point: 70.0 F (21.1 C)
Relative Humidity: 87%
Pressure (altimeter): 30 in. Hg (1015 hPa)
ob: KAPF 212309Z 09009KT 4SM VCTS +RA BR BKN050 OVC075 23/21 A3000 RMK AO2 LTG DSNT ALQDS TSE09 P0008 T02330211
cycle: 23

Station Type Date Time Source
KAPF TAF 2018/09/21 22:54 UTC NOAA

TAF
AMD KAPF 212153Z 2122/2218 35014G25KT 1SM TSRA SCT012CB BKN020 BKN070
FM212330 00000KT P6SM FEW040 SCT250
FM221400 09006KT P6SM SCT030 BKN250


Example: see airport list